sensor_id;sensor_type;location;lat;lon;timestamp;pressure;altitude;pressure_sealevel;temperature;humidity
66479;BME280;53294;47.912;13.526;2023-09-19T00:01:52;95948.59;;;15.74;89.30
66479;BME280;53294;47.912;13.526;2023-09-19T00:04:19;95949.34;;;15.62;89.93
66479;BME280;53294;47.912;13.526;2023-09-19T00:06:50;95949.41;;;15.53;91.37
66479;BME280;53294;47.912;13.526;2023-09-19T00:09:16;95964.06;;;15.52;92.81
66479;BME280;53294;47.912;13.526;2023-09-19T00:11:43;95961.69;;;15.51;94.08
66479;BME280;53294;47.912;13.526;2023-09-19T00:14:10;95954.09;;;15.44;95.33
66479;BME280;53294;47.912;13.526;2023-09-19T00:16:41;95955.44;;;15.38;96.31
66479;BME280;53294;47.912;13.526;2023-09-19T00:19:07;95954.25;;;15.26;92.49
66479;BME280;53294;47.912;13.526;2023-09-19T00:21:35;95941.66;;;15.31;93.93
66479;BME280;53294;47.912;13.526;2023-09-19T00:24:04;95954.78;;;15.20;92.07
66479;BME280;53294;47.912;13.526;2023-09-19T00:26:32;95952.41;;;15.18;93.37
66479;BME280;53294;47.912;13.526;2023-09-19T00:29:00;95952.59;;;15.13;94.52
66479;BME280;53294;47.912;13.526;2023-09-19T00:31:30;95954.19;;;15.14;95.10
66479;BME280;53294;47.912;13.526;2023-09-19T00:33:57;95949.44;;;15.11;92.94
66479;BME280;53294;47.912;13.526;2023-09-19T00:36:26;95948.91;;;14.97;93.30
66479;BME280;53294;47.912;13.526;2023-09-19T00:38:53;95936.56;;;14.87;92.35
66479;BME280;53294;47.912;13.526;2023-09-19T00:41:19;95924.50;;;14.84;94.97
66479;BME280;53294;47.912;13.526;2023-09-19T00:43:47;95914.47;;;14.85;94.50
66479;BME280;53294;47.912;13.526;2023-09-19T00:46:16;95915.00;;;14.78;94.79
66479;BME280;53294;47.912;13.526;2023-09-19T00:48:43;95911.56;;;14.69;95.67
66479;BME280;53294;47.912;13.526;2023-09-19T00:51:11;95908.56;;;14.62;96.75
66479;BME280;53294;47.912;13.526;2023-09-19T00:53:38;95908.56;;;14.62;97.84
66479;BME280;53294;47.912;13.526;2023-09-19T00:56:06;95905.72;;;14.58;96.18
66479;BME280;53294;47.912;13.526;2023-09-19T00:58:34;95893.63;;;14.55;96.75
66479;BME280;53294;47.912;13.526;2023-09-19T01:01:04;95905.59;;;14.54;97.38
66479;BME280;53294;47.912;13.526;2023-09-19T01:03:34;95902.41;;;14.52;96.10
66479;BME280;53294;47.912;13.526;2023-09-19T01:06:01;95903.34;;;14.57;96.71
66479;BME280;53294;47.912;13.526;2023-09-19T01:08:28;95908.25;;;14.63;96.96
66479;BME280;53294;47.912;13.526;2023-09-19T01:11:01;95910.78;;;14.68;98.02
66479;BME280;53294;47.912;13.526;2023-09-19T01:19:20;95901.56;;;14.90;94.12
66479;BME280;53294;47.912;13.526;2023-09-19T01:25:28;95907.56;;;14.96;97.33
66479;BME280;53294;47.912;13.526;2023-09-19T01:30:47;95920.16;;;14.92;98.04
66479;BME280;53294;47.912;13.526;2023-09-19T01:33:13;95909.66;;;14.90;98.43
66479;BME280;53294;47.912;13.526;2023-09-19T01:35:41;95920.47;;;14.90;98.00
66479;BME280;53294;47.912;13.526;2023-09-19T01:38:08;95919.69;;;14.90;97.54
66479;BME280;53294;47.912;13.526;2023-09-19T01:41:01;95918.31;;;14.84;97.39
66479;BME280;53294;47.912;13.526;2023-09-19T01:43:34;95915.00;;;14.78;96.54
66479;BME280;53294;47.912;13.526;2023-09-19T01:46:30;95906.88;;;14.78;97.06
66479;BME280;53294;47.912;13.526;2023-09-19T01:49:41;95907.34;;;14.80;96.88
66479;BME280;53294;47.912;13.526;2023-09-19T01:52:13;95909.72;;;14.82;96.20
66479;BME280;53294;47.912;13.526;2023-09-19T01:54:48;95907.50;;;14.84;97.14
66479;BME280;53294;47.912;13.526;2023-09-19T01:57:26;95910.84;;;14.81;96.32
66479;BME280;53294;47.912;13.526;2023-09-19T02:00:02;95912.75;;;14.80;95.85
66479;BME280;53294;47.912;13.526;2023-09-19T02:02:37;95914.22;;;14.78;96.73
66479;BME280;53294;47.912;13.526;2023-09-19T02:05:04;95910.91;;;14.72;96.83
66479;BME280;53294;47.912;13.526;2023-09-19T02:07:33;95909.84;;;14.64;96.80
66479;BME280;53294;47.912;13.526;2023-09-19T02:09:59;95922.41;;;14.60;97.14
66479;BME280;53294;47.912;13.526;2023-09-19T02:12:26;95916.69;;;14.62;96.47
66479;BME280;53294;47.912;13.526;2023-09-19T02:14:53;95905.88;;;14.62;95.92
66479;BME280;53294;47.912;13.526;2023-09-19T02:17:20;95908.25;;;14.63;96.32
66479;BME280;53294;47.912;13.526;2023-09-19T02:19:47;95912.22;;;14.66;95.74
66479;BME280;53294;47.912;13.526;2023-09-19T02:22:13;95909.50;;;14.66;95.13
66479;BME280;53294;47.912;13.526;2023-09-19T02:24:40;95912.22;;;14.66;95.04
66479;BME280;53294;47.912;13.526;2023-09-19T02:27:07;95920.00;;;14.67;94.92
66479;BME280;53294;47.912;13.526;2023-09-19T02:29:34;95923.69;;;14.63;94.90
66479;BME280;53294;47.912;13.526;2023-09-19T02:32:01;95925.13;;;14.60;94.75
66479;BME280;53294;47.912;13.526;2023-09-19T02:34:29;95917.97;;;14.55;95.80
66479;BME280;53294;47.912;13.526;2023-09-19T02:36:55;95925.94;;;14.52;95.63
66479;BME280;53294;47.912;13.526;2023-09-19T02:42:32;95917.69;;;14.48;95.92
66479;BME280;53294;47.912;13.526;2023-09-19T02:44:59;95920.06;;;14.50;95.19
66479;BME280;53294;47.912;13.526;2023-09-19T02:47:25;95924.00;;;14.52;94.99
66479;BME280;53294;47.912;13.526;2023-09-19T02:49:53;95928.31;;;14.53;94.21
66479;BME280;53294;47.912;13.526;2023-09-19T02:52:20;95934.16;;;14.55;95.22
66479;BME280;53294;47.912;13.526;2023-09-19T02:54:47;95930.81;;;14.59;94.29
66479;BME280;53294;47.912;13.526;2023-09-19T02:57:13;95942.16;;;14.61;94.24
66479;BME280;53294;47.912;13.526;2023-09-19T02:59:43;95938.78;;;14.64;94.20
66479;BME280;53294;47.912;13.526;2023-09-19T03:02:10;95940.03;;;14.66;94.72
66479;BME280;53294;47.912;13.526;2023-09-19T03:04:37;95943.22;;;14.68;94.80
66479;BME280;53294;47.912;13.526;2023-09-19T03:07:04;95949.84;;;14.71;95.29
66479;BME280;53294;47.912;13.526;2023-09-19T03:09:32;95954.28;;;14.76;95.52
66479;BME280;53294;47.912;13.526;2023-09-19T03:11:59;95944.94;;;14.73;96.10
66479;BME280;53294;47.912;13.526;2023-09-19T03:14:26;95944.94;;;14.73;95.69
66479;BME280;53294;47.912;13.526;2023-09-19T03:16:56;95948.75;;;14.72;95.73
66479;BME280;53294;47.912;13.526;2023-09-19T03:19:23;95945.84;;;14.77;95.24
66479;BME280;53294;47.912;13.526;2023-09-19T03:21:50;95947.44;;;14.78;94.58
66479;BME280;53294;47.912;13.526;2023-09-19T03:24:17;95948.38;;;14.82;94.52
66479;BME280;53294;47.912;13.526;2023-09-19T03:26:43;95948.38;;;14.82;95.23
66479;BME280;53294;47.912;13.526;2023-09-19T03:29:11;95946.78;;;14.81;96.04
66479;BME280;53294;47.912;13.526;2023-09-19T03:31:38;95951.53;;;14.84;96.46
66479;BME280;53294;47.912;13.526;2023-09-19T03:34:05;95956.28;;;14.87;96.58
66479;BME280;53294;47.912;13.526;2023-09-19T03:36:32;95952.47;;;14.88;96.47
66479;BME280;53294;47.912;13.526;2023-09-19T03:38:58;95950.75;;;14.84;96.82
66479;BME280;53294;47.912;13.526;2023-09-19T03:41:25;95950.44;;;14.85;97.23
66479;BME280;53294;47.912;13.526;2023-09-19T03:43:52;95943.88;;;14.86;96.66
66479;BME280;53294;47.912;13.526;2023-09-19T03:46:19;95940.06;;;14.87;96.28
66479;BME280;53294;47.912;13.526;2023-09-19T03:48:46;95944.38;;;14.88;96.34
66479;BME280;53294;47.912;13.526;2023-09-19T03:51:12;95942.44;;;14.89;96.13
66479;BME280;53294;47.912;13.526;2023-09-19T03:53:39;95951.53;;;14.84;96.16
66479;BME280;53294;47.912;13.526;2023-09-19T03:56:06;95956.66;;;14.77;96.66
66479;BME280;53294;47.912;13.526;2023-09-19T03:58:32;95962.59;;;14.70;97.11
66479;BME280;53294;47.912;13.526;2023-09-19T04:01:01;95955.00;;;14.64;97.31
66479;BME280;53294;47.912;13.526;2023-09-19T04:03:28;95968.53;;;14.64;97.28
66479;BME280;53294;47.912;13.526;2023-09-19T04:06:02;95955.00;;;14.64;97.14
66479;BME280;53294;47.912;13.526;2023-09-19T04:08:29;95963.38;;;14.71;96.86
66479;BME280;53294;47.912;13.526;2023-09-19T04:10:56;95953.38;;;14.71;96.51
66479;BME280;53294;47.912;13.526;2023-09-19T04:13:23;95970.19;;;14.77;96.48
66479;BME280;53294;47.912;13.526;2023-09-19T04:15:50;95965.09;;;14.76;96.61
66479;BME280;53294;47.912;13.526;2023-09-19T04:18:16;95968.34;;;14.60;98.77
66479;BME280;53294;47.912;13.526;2023-09-19T04:20:50;95966.91;;;14.63;98.53
66479;BME280;53294;47.912;13.526;2023-09-19T04:23:17;95976.56;;;14.72;97.81
66479;BME280;53294;47.912;13.526;2023-09-19T04:25:43;95978.28;;;14.77;96.91
66479;BME280;53294;47.912;13.526;2023-09-19T04:28:10;95969.06;;;14.78;96.47
66479;BME280;53294;47.912;13.526;2023-09-19T04:30:37;95984.63;;;14.81;95.96
66479;BME280;53294;47.912;13.526;2023-09-19T04:33:04;95982.13;;;14.76;96.03
66479;BME280;53294;47.912;13.526;2023-09-19T04:35:34;95995.81;;;14.71;94.42
66479;BME280;53294;47.912;13.526;2023-09-19T04:38:01;96004.25;;;14.69;93.88
66479;BME280;53294;47.912;13.526;2023-09-19T04:40:29;96002.47;;;14.74;92.70
66479;BME280;53294;47.912;13.526;2023-09-19T04:42:56;96003.56;;;14.81;90.57
66479;BME280;53294;47.912;13.526;2023-09-19T04:45:24;96012.41;;;14.90;88.72
66479;BME280;53294;47.912;13.526;2023-09-19T04:47:51;96016.44;;;15.05;86.95
66479;BME280;53294;47.912;13.526;2023-09-19T04:50:17;96014.63;;;15.18;87.08
66479;BME280;53294;47.912;13.526;2023-09-19T04:52:45;96018.72;;;15.24;88.32
66479;BME280;53294;47.912;13.526;2023-09-19T04:55:15;96011.84;;;15.27;88.58
66479;BME280;53294;47.912;13.526;2023-09-19T04:57:46;96023.16;;;15.29;88.30
66479;BME280;53294;47.912;13.526;2023-09-19T05:00:14;96019.63;;;15.29;87.37
66479;BME280;53294;47.912;13.526;2023-09-19T05:02:43;96018.06;;;15.28;86.47
66479;BME280;53294;47.912;13.526;2023-09-19T05:05:10;96016.69;;;15.21;86.27
66479;BME280;53294;47.912;13.526;2023-09-19T05:07:41;96016.19;;;15.19;87.08
66479;BME280;53294;47.912;13.526;2023-09-19T05:10:08;96019.50;;;15.25;86.57
66479;BME280;53294;47.912;13.526;2023-09-19T05:12:35;96022.34;;;15.29;85.28
66479;BME280;53294;47.912;13.526;2023-09-19T05:15:03;96029.16;;;15.35;86.17
66479;BME280;53294;47.912;13.526;2023-09-19T05:17:30;96026.44;;;15.35;85.97
66479;BME280;53294;47.912;13.526;2023-09-19T05:19:57;96032.78;;;15.39;85.89
66479;BME280;53294;47.912;13.526;2023-09-19T05:22:26;96026.50;;;15.47;85.75
66479;BME280;53294;47.912;13.526;2023-09-19T05:24:53;96029.69;;;15.49;85.40
66479;BME280;53294;47.912;13.526;2023-09-19T05:27:20;96040.75;;;15.56;85.22
66479;BME280;53294;47.912;13.526;2023-09-19T05:29:47;96040.25;;;15.63;84.93
66479;BME280;53294;47.912;13.526;2023-09-19T05:32:15;96037.59;;;15.75;85.16
66479;BME280;53294;47.912;13.526;2023-09-19T05:34:42;96049.31;;;15.88;84.82
66479;BME280;53294;47.912;13.526;2023-09-19T05:37:09;96054.28;;;15.98;84.27
66479;BME280;53294;47.912;13.526;2023-09-19T05:39:35;96051.63;;;16.11;83.83
66479;BME280;53294;47.912;13.526;2023-09-19T05:42:03;96047.38;;;16.22;83.71
66479;BME280;53294;47.912;13.526;2023-09-19T05:44:30;96060.75;;;16.40;83.14
66479;BME280;53294;47.912;13.526;2023-09-19T05:46:59;96060.66;;;16.48;83.81
66479;BME280;53294;47.912;13.526;2023-09-19T05:49:26;96054.91;;;16.50;84.31
66479;BME280;53294;47.912;13.526;2023-09-19T05:51:54;96063.16;;;16.54;83.81
66479;BME280;53294;47.912;13.526;2023-09-19T05:54:22;96059.66;;;16.53;84.36
66479;BME280;53294;47.912;13.526;2023-09-19T05:56:49;96065.09;;;16.53;85.63
66479;BME280;53294;47.912;13.526;2023-09-19T05:59:19;96061.91;;;16.51;86.96
66479;BME280;53294;47.912;13.526;2023-09-19T06:01:46;96066.94;;;16.40;86.62
66479;BME280;53294;47.912;13.526;2023-09-19T06:04:13;96061.13;;;16.50;87.41
66479;BME280;53294;47.912;13.526;2023-09-19T06:06:40;96073.09;;;16.62;87.25
66479;BME280;53294;47.912;13.526;2023-09-19T06:09:06;96060.47;;;16.78;85.03
66479;BME280;53294;47.912;13.526;2023-09-19T06:11:36;96064.00;;;16.91;82.67
66479;BME280;53294;47.912;13.526;2023-09-19T06:14:04;96060.84;;;16.89;81.52
66479;BME280;53294;47.912;13.526;2023-09-19T06:16:31;96065.41;;;16.76;82.34
66479;BME280;53294;47.912;13.526;2023-09-19T06:19:00;96069.16;;;16.84;81.37
66479;BME280;53294;47.912;13.526;2023-09-19T06:21:27;96065.59;;;16.92;81.62
66479;BME280;53294;47.912;13.526;2023-09-19T06:23:54;96062.97;;;17.08;80.88
66479;BME280;53294;47.912;13.526;2023-09-19T06:26:20;96075.75;;;17.20;79.49
66479;BME280;53294;47.912;13.526;2023-09-19T06:28:47;96080.28;;;17.16;79.23
66479;BME280;53294;47.912;13.526;2023-09-19T06:31:13;96082.09;;;17.12;76.67
66479;BME280;53294;47.912;13.526;2023-09-19T06:33:40;96090.34;;;17.15;75.77
66479;BME280;53294;47.912;13.526;2023-09-19T06:36:07;96087.97;;;17.26;75.63
66479;BME280;53294;47.912;13.526;2023-09-19T06:38:34;96091.56;;;17.30;74.68
66479;BME280;53294;47.912;13.526;2023-09-19T06:41:02;96098.59;;;17.31;72.27
66479;BME280;53294;47.912;13.526;2023-09-19T06:43:34;96102.75;;;17.41;73.29
66479;BME280;53294;47.912;13.526;2023-09-19T06:46:01;96099.44;;;17.60;71.59
66479;BME280;53294;47.912;13.526;2023-09-19T06:48:29;96107.59;;;17.60;68.72
66479;BME280;53294;47.912;13.526;2023-09-19T06:50:56;96108.47;;;17.76;70.02
66479;BME280;53294;47.912;13.526;2023-09-19T06:53:24;96102.78;;;17.94;69.50
66479;BME280;53294;47.912;13.526;2023-09-19T06:55:51;96109.94;;;18.15;67.74
66479;BME280;53294;47.912;13.526;2023-09-19T06:58:18;96108.63;;;18.37;67.91
66479;BME280;53294;47.912;13.526;2023-09-19T07:00:45;96108.75;;;18.56;66.42
66479;BME280;53294;47.912;13.526;2023-09-19T07:03:14;96104.03;;;18.69;66.12
66479;BME280;53294;47.912;13.526;2023-09-19T07:05:42;96113.44;;;18.88;65.51
66479;BME280;53294;47.912;13.526;2023-09-19T07:08:09;96109.47;;;18.69;62.87
66479;BME280;53294;47.912;13.526;2023-09-19T07:10:41;96117.72;;;18.57;65.53
66479;BME280;53294;47.912;13.526;2023-09-19T07:13:08;96122.47;;;18.60;65.38
66479;BME280;53294;47.912;13.526;2023-09-19T07:15:37;96119.81;;;18.79;65.38
66479;BME280;53294;47.912;13.526;2023-09-19T07:18:14;96123.03;;;18.97;66.27
66479;BME280;53294;47.912;13.526;2023-09-19T07:20:44;96126.97;;;19.00;66.12
66479;BME280;53294;47.912;13.526;2023-09-19T07:23:20;96140.25;;;18.57;64.00
66479;BME280;53294;47.912;13.526;2023-09-19T07:25:48;96137.91;;;18.27;65.63
66479;BME280;53294;47.912;13.526;2023-09-19T07:28:16;96126.59;;;18.13;65.02
66479;BME280;53294;47.912;13.526;2023-09-19T07:30:42;96140.84;;;18.22;65.24
66479;BME280;53294;47.912;13.526;2023-09-19T07:33:09;96137.59;;;18.17;65.97
66479;BME280;53294;47.912;13.526;2023-09-19T07:35:38;96146.88;;;18.16;66.70
66479;BME280;53294;47.912;13.526;2023-09-19T07:38:08;96143.47;;;18.19;66.04
66479;BME280;53294;47.912;13.526;2023-09-19T07:40:38;96140.97;;;18.26;66.16
66479;BME280;53294;47.912;13.526;2023-09-19T07:43:05;96144.56;;;18.30;65.84
66479;BME280;53294;47.912;13.526;2023-09-19T07:45:33;96148.16;;;18.34;65.88
66479;BME280;53294;47.912;13.526;2023-09-19T07:48:00;96157.16;;;18.22;66.25
66479;BME280;53294;47.912;13.526;2023-09-19T07:50:34;96156.84;;;18.11;66.03
66479;BME280;53294;47.912;13.526;2023-09-19T07:53:03;96157.13;;;17.94;65.78
66479;BME280;53294;47.912;13.526;2023-09-19T07:55:31;96156.44;;;17.97;66.33
66479;BME280;53294;47.912;13.526;2023-09-19T07:58:00;96159.84;;;17.94;66.84
66479;BME280;53294;47.912;13.526;2023-09-19T08:00:29;96170.50;;;17.99;66.04
66479;BME280;53294;47.912;13.526;2023-09-19T08:02:56;96164.22;;;18.11;66.63
66479;BME280;53294;47.912;13.526;2023-09-19T08:05:29;96178.41;;;18.04;66.65
66479;BME280;53294;47.912;13.526;2023-09-19T08:07:56;96177.72;;;18.07;67.44
66479;BME280;53294;47.912;13.526;2023-09-19T08:10:23;96170.22;;;18.17;66.13
66479;BME280;53294;47.912;13.526;2023-09-19T08:12:54;96170.22;;;18.17;66.27
66479;BME280;53294;47.912;13.526;2023-09-19T08:15:24;96184.72;;;18.08;66.41
66479;BME280;53294;47.912;13.526;2023-09-19T08:17:51;96182.94;;;18.00;66.34
66479;BME280;53294;47.912;13.526;2023-09-19T08:20:18;96176.91;;;18.07;66.29
66479;BME280;53294;47.912;13.526;2023-09-19T08:22:49;96174.06;;;18.16;66.82
66479;BME280;53294;47.912;13.526;2023-09-19T08:25:19;96181.47;;;18.31;66.15
66479;BME280;53294;47.912;13.526;2023-09-19T08:27:46;96183.47;;;18.46;65.97
66479;BME280;53294;47.912;13.526;2023-09-19T08:30:22;96183.69;;;18.54;65.90
66479;BME280;53294;47.912;13.526;2023-09-19T08:33:00;96177.81;;;18.96;64.65
66479;BME280;53294;47.912;13.526;2023-09-19T08:35:27;96180.19;;;19.29;64.83
66479;BME280;53294;47.912;13.526;2023-09-19T08:37:55;96183.31;;;19.95;63.14
66479;BME280;53294;47.912;13.526;2023-09-19T08:40:22;96175.63;;;20.40;60.44
66479;BME280;53294;47.912;13.526;2023-09-19T08:42:50;96175.94;;;20.54;59.96
66479;BME280;53294;47.912;13.526;2023-09-19T08:45:17;96176.06;;;20.61;59.97
66479;BME280;53294;47.912;13.526;2023-09-19T08:47:50;96181.53;;;20.61;60.60
66479;BME280;53294;47.912;13.526;2023-09-19T08:50:27;96178.66;;;20.74;59.63
66479;BME280;53294;47.912;13.526;2023-09-19T08:53:00;96184.44;;;20.69;59.43
66479;BME280;53294;47.912;13.526;2023-09-19T08:55:28;96184.28;;;20.42;59.25
66479;BME280;53294;47.912;13.526;2023-09-19T08:58:00;96185.41;;;20.21;58.72
66479;BME280;53294;47.912;13.526;2023-09-19T09:00:28;96187.84;;;20.26;58.97
66479;BME280;53294;47.912;13.526;2023-09-19T09:02:58;96189.16;;;20.33;59.12
66479;BME280;53294;47.912;13.526;2023-09-19T09:05:27;96198.81;;;20.30;58.61
66479;BME280;53294;47.912;13.526;2023-09-19T09:07:55;96197.81;;;20.19;58.92
66479;BME280;53294;47.912;13.526;2023-09-19T09:10:23;96197.88;;;20.03;59.49
66479;BME280;53294;47.912;13.526;2023-09-19T09:12:53;96188.00;;;19.79;59.52
66479;BME280;53294;47.912;13.526;2023-09-19T09:15:24;96190.25;;;19.93;59.66
66479;BME280;53294;47.912;13.526;2023-09-19T09:17:51;96194.44;;;20.06;59.46
66479;BME280;53294;47.912;13.526;2023-09-19T09:20:22;96195.16;;;20.03;58.32
66479;BME280;53294;47.912;13.526;2023-09-19T09:22:55;96197.75;;;20.15;58.75
66479;BME280;53294;47.912;13.526;2023-09-19T09:25:51;96189.00;;;20.25;57.34
66479;BME280;53294;47.912;13.526;2023-09-19T09:28:23;96193.59;;;20.41;57.98
66479;BME280;53294;47.912;13.526;2023-09-19T09:30:51;96193.81;;;20.52;56.54
66479;BME280;53294;47.912;13.526;2023-09-19T09:33:18;96186.28;;;20.65;57.20
66479;BME280;53294;47.912;13.526;2023-09-19T09:35:56;96185.00;;;20.78;56.21
66479;BME280;53294;47.912;13.526;2023-09-19T09:38:24;96184.75;;;21.10;55.18
66479;BME280;53294;47.912;13.526;2023-09-19T09:40:55;96170.56;;;21.47;55.03
66479;BME280;53294;47.912;13.526;2023-09-19T09:43:38;96165.94;;;22.04;52.25
66479;BME280;53294;47.912;13.526;2023-09-19T09:46:14;96175.41;;;22.11;52.10
66479;BME280;53294;47.912;13.526;2023-09-19T09:48:48;96172.81;;;22.21;51.42
66479;BME280;53294;47.912;13.526;2023-09-19T09:52:02;96178.50;;;21.79;53.01
66479;BME280;53294;47.912;13.526;2023-09-19T09:54:35;96175.31;;;22.03;52.17
66479;BME280;53294;47.912;13.526;2023-09-19T09:57:10;96175.53;;;22.21;52.53
66479;BME280;53294;47.912;13.526;2023-09-19T09:59:57;96178.94;;;22.41;52.38
66479;BME280;53294;47.912;13.526;2023-09-19T10:02:47;96172.13;;;22.62;50.31
66479;BME280;53294;47.912;13.526;2023-09-19T10:05:15;96171.03;;;22.67;50.89
66479;BME280;53294;47.912;13.526;2023-09-19T10:08:11;96175.72;;;22.66;49.93
66479;BME280;53294;47.912;13.526;2023-09-19T10:10:45;96177.56;;;22.55;52.45
66479;BME280;53294;47.912;13.526;2023-09-19T10:13:21;96186.53;;;22.25;51.35
66479;BME280;53294;47.912;13.526;2023-09-19T10:15:51;96171.91;;;22.40;51.39
66479;BME280;53294;47.912;13.526;2023-09-19T10:18:26;96178.53;;;22.73;50.47
66479;BME280;53294;47.912;13.526;2023-09-19T10:20:56;96173.94;;;23.19;50.11
66479;BME280;53294;47.912;13.526;2023-09-19T10:23:23;96172.72;;;23.64;49.68
66479;BME280;53294;47.912;13.526;2023-09-19T10:25:52;96173.44;;;24.13;47.28
66479;BME280;53294;47.912;13.526;2023-09-19T10:28:20;96161.19;;;24.91;45.76
66479;BME280;53294;47.912;13.526;2023-09-19T10:30:51;96154.13;;;25.91;44.51
66479;BME280;53294;47.912;13.526;2023-09-19T10:33:21;96160.63;;;26.55;41.79
66479;BME280;53294;47.912;13.526;2023-09-19T10:35:50;96151.50;;;26.76;40.64
66479;BME280;53294;47.912;13.526;2023-09-19T10:38:23;96152.34;;;26.69;41.63
66479;BME280;53294;47.912;13.526;2023-09-19T10:40:53;96153.75;;;26.92;41.09
66479;BME280;53294;47.912;13.526;2023-09-19T10:43:23;96151.44;;;26.87;40.82
66479;BME280;53294;47.912;13.526;2023-09-19T10:45:53;96151.00;;;25.96;42.54
66479;BME280;53294;47.912;13.526;2023-09-19T10:48:20;96157.34;;;25.29;44.78
66479;BME280;53294;47.912;13.526;2023-09-19T10:51:06;96154.91;;;24.95;45.02
66479;BME280;53294;47.912;13.526;2023-09-19T10:56:26;96154.16;;;25.12;44.98
66479;BME280;53294;47.912;13.526;2023-09-19T10:59:11;96155.31;;;24.89;45.67
66479;BME280;53294;47.912;13.526;2023-09-19T11:01:47;96144.31;;;25.87;44.46
66479;BME280;53294;47.912;13.526;2023-09-19T11:07:07;96140.91;;;28.18;39.69
66479;BME280;53294;47.912;13.526;2023-09-19T11:09:47;96137.31;;;28.21;38.28
66479;BME280;53294;47.912;13.526;2023-09-19T11:14:59;96133.91;;;28.09;37.22
66479;BME280;53294;47.912;13.526;2023-09-19T11:17:32;96133.19;;;28.36;35.40
66479;BME280;53294;47.912;13.526;2023-09-19T11:30:36;96145.09;;;25.94;40.39
66479;BME280;53294;47.912;13.526;2023-09-19T11:36:15;96128.69;;;27.28;38.40
66479;BME280;53294;47.912;13.526;2023-09-19T11:43:49;96137.63;;;26.06;39.29
66479;BME280;53294;47.912;13.526;2023-09-19T11:46:21;96140.00;;;25.89;40.69
66479;BME280;53294;47.912;13.526;2023-09-19T11:48:49;96144.00;;;25.45;41.63
66479;BME280;53294;47.912;13.526;2023-09-19T11:53:51;96143.00;;;24.47;44.46
66479;BME280;53294;47.912;13.526;2023-09-19T11:56:23;96153.09;;;24.18;44.14
66479;BME280;53294;47.912;13.526;2023-09-19T11:58:52;96159.13;;;23.82;45.79
66479;BME280;53294;47.912;13.526;2023-09-19T12:01:30;96163.09;;;23.85;45.79
66479;BME280;53294;47.912;13.526;2023-09-19T12:03:59;96154.31;;;23.65;45.00
66479;BME280;53294;47.912;13.526;2023-09-19T12:06:27;96162.31;;;23.36;47.16
66479;BME280;53294;47.912;13.526;2023-09-19T12:08:56;96164.69;;;23.41;46.91
66479;BME280;53294;47.912;13.526;2023-09-19T12:11:30;96152.66;;;23.53;46.73
66479;BME280;53294;47.912;13.526;2023-09-19T12:14:01;96152.91;;;23.86;47.92
66479;BME280;53294;47.912;13.526;2023-09-19T12:16:28;96152.63;;;24.05;46.11
66479;BME280;53294;47.912;13.526;2023-09-19T12:19:17;96157.88;;;24.39;46.93
66479;BME280;53294;47.912;13.526;2023-09-19T12:21:58;96149.28;;;24.44;44.39
66479;BME280;53294;47.912;13.526;2023-09-19T12:24:27;96148.22;;;24.70;44.53
66479;BME280;53294;47.912;13.526;2023-09-19T12:27:01;96138.44;;;24.95;43.11
66479;BME280;53294;47.912;13.526;2023-09-19T12:29:31;96148.47;;;24.40;44.33
66479;BME280;53294;47.912;13.526;2023-09-19T12:31:59;96144.47;;;24.23;44.68
66479;BME280;53294;47.912;13.526;2023-09-19T12:34:27;96134.22;;;24.02;44.65
66479;BME280;53294;47.912;13.526;2023-09-19T12:37:16;96137.13;;;23.68;45.87
66479;BME280;53294;47.912;13.526;2023-09-19T12:39:51;96148.06;;;23.16;46.26
66479;BME280;53294;47.912;13.526;2023-09-19T12:42:23;96150.34;;;22.69;48.13
66479;BME280;53294;47.912;13.526;2023-09-19T12:44:53;96146.34;;;22.63;49.50
66479;BME280;53294;47.912;13.526;2023-09-19T12:47:24;96149.00;;;22.22;49.61
66479;BME280;53294;47.912;13.526;2023-09-19T12:52:37;96147.19;;;22.67;50.16
66479;BME280;53294;47.912;13.526;2023-09-19T12:55:05;96143.97;;;23.40;48.80
66479;BME280;53294;47.912;13.526;2023-09-19T12:57:34;96139.41;;;24.29;47.06
66479;BME280;53294;47.912;13.526;2023-09-19T13:00:02;96135.28;;;24.85;44.82
66479;BME280;53294;47.912;13.526;2023-09-19T13:02:29;96136.50;;;25.13;44.22
66479;BME280;53294;47.912;13.526;2023-09-19T13:04:56;96136.53;;;25.42;42.34
66479;BME280;53294;47.912;13.526;2023-09-19T13:07:42;96125.88;;;25.98;42.68
66479;BME280;53294;47.912;13.526;2023-09-19T13:10:13;96118.25;;;26.34;42.60
66479;BME280;53294;47.912;13.526;2023-09-19T13:12:43;96125.28;;;26.43;42.11
66479;BME280;53294;47.912;13.526;2023-09-19T13:15:15;96114.59;;;26.59;40.39
66479;BME280;53294;47.912;13.526;2023-09-19T13:17:52;96122.47;;;26.57;41.02
66479;BME280;53294;47.912;13.526;2023-09-19T13:20:23;96117.72;;;26.65;41.22
66479;BME280;53294;47.912;13.526;2023-09-19T13:22:54;96112.97;;;26.73;40.31
66479;BME280;53294;47.912;13.526;2023-09-19T13:25:25;96109.28;;;26.97;40.57
66479;BME280;53294;47.912;13.526;2023-09-19T13:27:55;96101.13;;;26.79;39.92
66479;BME280;53294;47.912;13.526;2023-09-19T13:30:24;96111.78;;;25.56;42.62
66479;BME280;53294;47.912;13.526;2023-09-19T13:32:52;96105.06;;;25.65;42.38
66479;BME280;53294;47.912;13.526;2023-09-19T13:35:20;96103.84;;;25.87;42.11
66479;BME280;53294;47.912;13.526;2023-09-19T13:37:47;96106.59;;;25.87;42.70
66479;BME280;53294;47.912;13.526;2023-09-19T13:40:15;96112.53;;;25.60;43.13
66479;BME280;53294;47.912;13.526;2023-09-19T13:42:42;96103.53;;;25.46;42.58
66479;BME280;53294;47.912;13.526;2023-09-19T13:45:09;96101.56;;;25.53;41.99
66479;BME280;53294;47.912;13.526;2023-09-19T13:47:39;96103.50;;;25.27;42.95
66479;BME280;53294;47.912;13.526;2023-09-19T13:50:06;96112.56;;;24.96;43.32
66479;BME280;53294;47.912;13.526;2023-09-19T13:52:34;96110.19;;;24.98;42.91